createdAt,value
2018-07-12T00:00:04.024Z,99976.80
2018-07-12T00:02:31.466Z,99974.98
2018-07-12T00:04:58.808Z,99979.31
2018-07-12T00:07:26.144Z,99977.10
2018-07-12T00:09:53.570Z,99982.91
2018-07-12T00:12:20.930Z,99979.31
2018-07-12T00:14:48.310Z,99984.63
2018-07-12T00:17:15.615Z,99986.41
2018-07-12T00:19:42.954Z,99986.35
2018-07-12T00:22:10.299Z,99985.50
2018-07-12T00:24:37.628Z,99982.36
2018-07-12T00:27:05.233Z,99984.96
2018-07-12T00:29:32.631Z,99980.58
2018-07-12T00:32:00.045Z,99982.75
2018-07-12T00:34:27.382Z,99985.41
2018-07-12T00:36:54.756Z,99989.02
2018-07-12T00:39:22.061Z,99984.96
2018-07-12T00:41:49.387Z,99994.66
2018-07-12T00:44:16.686Z,99988.02
2018-07-12T00:46:44.108Z,99987.13
2018-07-12T00:49:11.409Z,99992.45
2018-07-12T00:51:38.744Z,99985.02
2018-07-12T00:54:06.015Z,99986.84
2018-07-12T00:56:33.344Z,99991.28
2018-07-12T00:59:00.691Z,99991.28
2018-07-12T01:01:28.041Z,99982.84
2018-07-12T01:03:55.350Z,99989.56
2018-07-12T01:06:22.716Z,99986.41
2018-07-12T01:08:50.049Z,99982.52
2018-07-12T01:11:17.402Z,99979.46
2018-07-12T01:13:44.717Z,99980.85
2018-07-12T01:16:12.040Z,99981.80
2018-07-12T01:18:39.464Z,99981.80
2018-07-12T01:21:06.819Z,99982.24
2018-07-12T01:23:34.115Z,99983.18
2018-07-12T01:26:01.493Z,99981.40
2018-07-12T01:28:28.808Z,99976.08
2018-07-12T01:30:56.196Z,99983.13
2018-07-12T01:33:23.524Z,99983.67
2018-07-12T01:35:50.860Z,99978.86
2018-07-12T01:38:18.190Z,99980.28
2018-07-12T01:40:45.521Z,99972.42
2018-07-12T01:43:12.816Z,99969.49
2018-07-12T01:45:40.197Z,99973.30
2018-07-12T01:48:07.519Z,99973.57
2018-07-12T01:50:34.941Z,99970.73
2018-07-12T01:53:02.312Z,99966.61
2018-07-12T01:55:29.726Z,99963.47
2018-07-12T01:57:57.072Z,99962.34
2018-07-12T02:00:24.393Z,99955.96
2018-07-12T02:02:51.764Z,99956.22
2018-07-12T02:05:19.307Z,99954.31
2018-07-12T02:07:47.441Z,99950.62
2018-07-12T02:10:14.926Z,99956.58
2018-07-12T02:12:42.455Z,99960.37
2018-07-12T02:15:09.918Z,99970.71
2018-07-12T02:17:37.313Z,99972.34
2018-07-12T02:20:04.637Z,99975.19
2018-07-12T02:22:31.989Z,99964.85
2018-07-12T02:24:59.316Z,99961.12
2018-07-12T02:27:26.644Z,99960.38
2018-07-12T02:29:53.957Z,99968.94
2018-07-12T02:32:21.337Z,99972.57
2018-07-12T02:34:48.721Z,99965.67
2018-07-12T02:37:16.067Z,99966.31
2018-07-12T02:39:43.442Z,99968.31
2018-07-12T02:42:10.816Z,99974.20
2018-07-12T02:44:38.156Z,99967.22
2018-07-12T02:47:05.503Z,99965.05
2018-07-12T02:49:32.848Z,99966.48
2018-07-12T02:52:00.206Z,99971.39
2018-07-12T02:54:27.541Z,99968.34
2018-07-12T02:56:54.906Z,99967.94
2018-07-12T02:59:22.243Z,99971.52
2018-07-12T03:01:49.635Z,99964.94
2018-07-12T03:04:16.993Z,99964.14
2018-07-12T03:06:44.424Z,99960.70
2018-07-12T03:09:11.868Z,99963.45
2018-07-12T03:11:39.217Z,99962.25
2018-07-12T03:14:06.710Z,99967.22
2018-07-12T03:16:34.093Z,99966.37
2018-07-12T03:19:01.471Z,99960.27
2018-07-12T03:21:28.851Z,99969.95
2018-07-12T03:23:56.151Z,99967.22
2018-07-12T03:26:23.531Z,99972.87
2018-07-12T03:28:50.899Z,99972.28
2018-07-12T03:31:18.273Z,99972.16
2018-07-12T03:33:45.637Z,99965.47
2018-07-12T03:36:12.953Z,99964.01
2018-07-12T03:38:40.336Z,99965.73
2018-07-12T03:41:07.634Z,99963.33
2018-07-12T03:43:34.926Z,99973.75
2018-07-12T03:46:02.346Z,99968.31
2018-07-12T03:48:29.727Z,99970.37
2018-07-12T03:50:57.062Z,99967.59
2018-07-12T03:53:24.477Z,99970.59
2018-07-12T03:55:51.889Z,99970.93
2018-07-12T03:58:19.241Z,99965.63
2018-07-12T04:00:46.637Z,99974.03
2018-07-12T04:03:14.089Z,99978.02
2018-07-12T04:05:41.530Z,99975.63
2018-07-12T04:08:08.963Z,99975.86
2018-07-12T04:10:36.353Z,99986.20
2018-07-12T04:13:03.686Z,99975.39
2018-07-12T04:15:31.858Z,99982.31
2018-07-12T04:17:59.282Z,99987.44
2018-07-12T04:20:26.723Z,99990.73
2018-07-12T04:22:54.159Z,99987.92
2018-07-12T04:25:21.570Z,99989.53
2018-07-12T04:27:49.135Z,99986.34
2018-07-12T04:30:16.483Z,99991.06
2018-07-12T04:32:43.827Z,99993.52
2018-07-12T04:35:11.307Z,99991.99
2018-07-12T04:37:38.709Z,99992.19
2018-07-12T04:40:06.155Z,100000.80
2018-07-12T04:42:33.546Z,100005.47
2018-07-12T04:45:01.047Z,100002.66
2018-07-12T04:47:28.536Z,99999.41
2018-07-12T04:49:55.848Z,99992.70
2018-07-12T04:52:23.220Z,99999.66
2018-07-12T04:54:50.572Z,99999.99
2018-07-12T04:57:17.935Z,100000.72
2018-07-12T04:59:45.302Z,99997.47
2018-07-12T05:02:12.630Z,100000.45
2018-07-12T05:04:40.013Z,100002.63
2018-07-12T05:07:07.400Z,100002.91
2018-07-12T05:09:34.852Z,100007.30
2018-07-12T05:12:03.175Z,100002.91
2018-07-12T05:14:30.685Z,100001.04
2018-07-12T05:16:58.029Z,100002.61
2018-07-12T05:19:25.449Z,100013.52
2018-07-12T05:21:52.867Z,100008.20
2018-07-12T05:24:20.192Z,100011.31
2018-07-12T05:26:48.310Z,100020.17
2018-07-12T05:29:18.101Z,100019.23
2018-07-12T05:31:46.285Z,100016.58
2018-07-12T05:34:18.027Z,100025.28
2018-07-12T05:37:03.627Z,100024.77
2018-07-12T05:39:38.944Z,100029.94
2018-07-12T05:42:13.325Z,100032.16
2018-07-12T05:44:44.461Z,100034.81
2018-07-12T05:47:21.387Z,100032.55
2018-07-12T05:49:50.605Z,100032.06
2018-07-12T06:34:45.857Z,100074.00
2018-07-12T06:37:15.687Z,100073.75
2018-07-12T06:39:44.710Z,100070.97
2018-07-12T06:42:13.644Z,100074.42
2018-07-12T06:44:43.117Z,100075.54
2018-07-12T06:47:15.653Z,100081.52
2018-07-12T06:49:44.635Z,100075.77
2018-07-12T06:52:13.513Z,100083.16
2018-07-12T06:54:43.378Z,100083.87
2018-07-12T06:57:23.779Z,100092.59
2018-07-12T06:59:52.519Z,100094.87
2018-07-12T07:02:21.347Z,100096.95
2018-07-12T07:04:50.056Z,100098.22
2018-07-12T07:07:18.683Z,100096.95
2018-07-12T07:09:47.683Z,100096.80
2018-07-12T07:12:16.371Z,100094.97
2018-07-12T07:14:45.119Z,100097.64
2018-07-12T07:17:13.883Z,100091.44
2018-07-12T07:19:42.708Z,100097.59
2018-07-12T07:22:11.300Z,100098.75
2018-07-12T07:24:39.958Z,100100.09
2018-07-12T07:27:08.671Z,100099.38
2018-07-12T07:29:37.234Z,100104.52
2018-07-12T07:32:05.869Z,100109.19
2018-07-12T07:34:34.532Z,100108.01
2018-07-12T07:37:03.333Z,100102.97
2018-07-12T07:39:32.049Z,100106.77
2018-07-12T07:42:00.788Z,100106.90
2018-07-12T07:44:29.415Z,100113.58
2018-07-12T07:46:58.016Z,100121.69
2018-07-12T07:49:26.583Z,100122.25
2018-07-12T07:51:55.228Z,100125.74
2018-07-12T07:54:23.812Z,100123.08
2018-07-12T07:56:52.726Z,100124.42
2018-07-12T07:59:21.596Z,100127.37
2018-07-12T08:01:50.290Z,100126.16
2018-07-12T08:04:19.063Z,100128.56
2018-07-12T08:06:48.467Z,100122.20
2018-07-12T08:09:17.363Z,100128.93
2018-07-12T08:11:46.270Z,100131.47
2018-07-12T08:14:15.088Z,100128.21
2018-07-12T08:16:45.940Z,100135.72
2018-07-12T08:19:14.802Z,100133.67
2018-07-12T08:21:43.475Z,100141.58
2018-07-12T08:24:12.248Z,100136.11
2018-07-12T08:26:41.192Z,100141.03
2018-07-12T08:29:12.060Z,100141.84
2018-07-12T08:31:40.958Z,100129.96
2018-07-12T08:34:09.812Z,100132.59
2018-07-12T08:36:38.810Z,100143.17
2018-07-12T08:39:10.849Z,100129.45
2018-07-12T08:41:39.887Z,100130.06
2018-07-12T08:44:08.962Z,100128.91
2018-07-12T08:46:38.125Z,100125.49
2018-07-12T08:49:07.160Z,100124.63
2018-07-12T08:51:36.179Z,100122.77
2018-07-12T08:54:05.307Z,100129.27
2018-07-12T08:56:34.448Z,100132.64
2018-07-12T08:59:03.446Z,100131.98
2018-07-12T09:01:32.232Z,100134.20
2018-07-12T09:04:01.461Z,100134.56
2018-07-12T09:06:30.205Z,100136.39
2018-07-12T09:08:58.881Z,100135.56
2018-07-12T09:11:28.135Z,100141.63
2018-07-12T09:13:56.753Z,100144.20
2018-07-12T09:16:25.362Z,100140.66
2018-07-12T09:18:53.892Z,100140.23
2018-07-12T09:21:22.395Z,100139.25
2018-07-12T09:23:51.328Z,100133.27
2018-07-12T09:26:20.270Z,100145.14
2018-07-12T09:28:48.851Z,100139.42
2018-07-12T09:31:17.457Z,100142.42
2018-07-12T09:33:47.254Z,100139.33
2018-07-12T09:36:15.853Z,100137.34
2018-07-12T09:38:52.808Z,100145.70
2018-07-12T09:41:22.044Z,100143.30
2018-07-12T09:43:51.039Z,100145.98
2018-07-12T09:46:19.748Z,100140.86
2018-07-12T09:48:49.538Z,100145.95
2018-07-12T09:51:18.112Z,100144.45
2018-07-12T09:53:47.455Z,100146.89
2018-07-12T09:56:16.073Z,100145.36
2018-07-12T09:58:44.681Z,100145.48
2018-07-12T10:01:18.528Z,100145.70
2018-07-12T10:03:53.638Z,100146.63
2018-07-12T10:06:26.128Z,100149.14
2018-07-12T10:09:59.943Z,100147.86
2018-07-12T10:12:33.085Z,100138.63
2018-07-12T10:15:07.505Z,100138.22
2018-07-12T10:17:41.463Z,100145.98
2018-07-12T10:20:10.384Z,100141.34
2018-07-12T10:22:39.056Z,100143.60
2018-07-12T10:25:08.007Z,100147.01
2018-07-12T10:27:36.699Z,100144.55
2018-07-12T10:30:05.641Z,100140.73
2018-07-12T10:32:34.572Z,100142.91
2018-07-12T10:35:03.268Z,100145.47
2018-07-12T10:37:31.889Z,100142.45
2018-07-12T10:40:00.437Z,100138.95
2018-07-12T10:42:29.017Z,100137.22
2018-07-12T10:44:57.553Z,100133.19
2018-07-12T10:47:26.821Z,100139.30
2018-07-12T10:49:55.409Z,100135.12
2018-07-12T10:52:24.008Z,100137.91
2018-07-12T10:54:52.545Z,100137.16
2018-07-12T10:57:21.143Z,100144.94
2018-07-12T10:59:49.767Z,100137.16
2018-07-12T11:02:18.452Z,100132.54
2018-07-12T11:04:47.094Z,100133.10
2018-07-12T11:07:15.860Z,100129.11
2018-07-12T11:09:44.478Z,100133.23
2018-07-12T11:12:13.301Z,100137.32
2018-07-12T11:14:41.839Z,100128.44
2018-07-12T11:17:10.526Z,100133.91
2018-07-12T11:19:39.132Z,100132.22
2018-07-12T11:22:07.845Z,100134.59
2018-07-12T11:24:36.568Z,100128.44
2018-07-12T11:27:05.253Z,100126.08
2018-07-12T11:29:44.921Z,100125.91
2018-07-12T11:32:13.545Z,100131.22
2018-07-12T11:34:42.083Z,100126.77
2018-07-12T11:37:15.371Z,100127.95
2018-07-12T11:39:43.942Z,100125.98
2018-07-12T11:42:12.465Z,100126.62
2018-07-12T11:44:40.980Z,100122.98
2018-07-12T11:47:09.594Z,100116.39
2018-07-12T11:49:38.123Z,100118.16
2018-07-12T11:52:07.065Z,100114.39
2018-07-12T11:54:35.751Z,100119.43
2018-07-12T11:57:04.510Z,100113.38
2018-07-12T11:59:33.175Z,100114.50
2018-07-12T12:02:04.310Z,100115.63
2018-07-12T12:04:32.947Z,100122.80
2018-07-12T12:07:01.881Z,100121.84
2018-07-12T12:09:30.475Z,100117.34
2018-07-12T12:11:59.266Z,100115.26
2018-07-12T12:14:27.885Z,100111.47
2018-07-12T12:16:56.515Z,100112.19
2018-07-12T12:19:25.176Z,100109.67
2018-07-12T12:21:54.117Z,100102.08
2018-07-12T12:24:22.776Z,100099.53
2018-07-12T12:26:51.637Z,100097.44
2018-07-12T12:29:20.305Z,100094.39
2018-07-12T12:31:48.973Z,100095.83
2018-07-12T12:34:17.779Z,100098.26
2018-07-12T12:36:46.359Z,100089.36
2018-07-12T12:39:15.004Z,100090.53
2018-07-12T12:41:43.714Z,100086.97
2018-07-12T12:44:12.576Z,100087.74
2018-07-12T12:46:41.304Z,100088.16
2018-07-12T12:49:10.050Z,100087.90
2018-07-12T12:51:39.001Z,100086.24
2018-07-12T12:54:07.756Z,100085.41
2018-07-12T12:56:36.414Z,100088.77
2018-07-12T12:59:05.087Z,100081.23
2018-07-12T13:01:33.820Z,100084.47
2018-07-12T13:04:02.609Z,100080.06
2018-07-12T13:06:31.375Z,100076.45
2018-07-12T13:09:00.867Z,100078.72
2018-07-12T13:11:29.701Z,100082.84
2018-07-12T13:13:58.498Z,100084.44
2018-07-12T13:16:27.231Z,100082.93
2018-07-12T13:18:56.439Z,100074.03
2018-07-12T13:21:25.099Z,100072.24
2018-07-12T13:23:53.916Z,100081.41
2018-07-12T13:26:22.548Z,100075.32
2018-07-12T13:28:52.146Z,100070.26
2018-07-12T13:31:20.702Z,100070.32
2018-07-12T13:33:49.285Z,100069.03
2018-07-12T13:36:17.904Z,100074.19
2018-07-12T13:38:46.486Z,99958.71
2018-07-12T13:41:15.042Z,100067.77
2018-07-12T13:43:43.656Z,100067.37
2018-07-12T13:46:12.174Z,100066.64
2018-07-12T13:48:40.801Z,100060.87
2018-07-12T13:51:09.390Z,100051.94
2018-07-12T13:53:38.107Z,100061.02
2018-07-12T13:56:06.620Z,100056.20
2018-07-12T13:58:35.260Z,100056.28
2018-07-12T14:01:03.946Z,100053.53
2018-07-12T14:03:32.742Z,100056.95
2018-07-12T14:06:01.776Z,100046.50
2018-07-12T14:08:30.429Z,100048.23
2018-07-12T14:10:58.998Z,100048.41
2018-07-12T14:13:27.621Z,100048.13
2018-07-12T14:15:56.246Z,100046.30
2018-07-12T14:18:24.927Z,100050.47
2018-07-12T14:20:53.616Z,100053.25
2018-07-12T14:23:22.282Z,100041.38
2018-07-12T14:25:50.859Z,100052.20
2018-07-12T14:28:19.412Z,100041.97
2018-07-12T14:30:47.947Z,100045.71
2018-07-12T14:33:16.576Z,100044.33
2018-07-12T14:35:45.115Z,100044.17
2018-07-12T14:38:13.643Z,100039.84
2018-07-12T14:40:42.202Z,100040.73
2018-07-12T14:43:10.772Z,100030.92
2018-07-12T14:45:39.358Z,100030.66
2018-07-12T14:48:08.156Z,100030.56
2018-07-12T14:50:36.828Z,100030.96
2018-07-12T14:53:05.501Z,100032.56
2018-07-12T14:55:34.027Z,100025.38
2018-07-12T14:58:02.672Z,100017.67
2018-07-12T15:00:31.491Z,100023.12
2018-07-12T15:03:00.084Z,100023.95
2018-07-12T15:05:28.804Z,100018.51
2018-07-12T15:07:57.441Z,100022.52
2018-07-12T15:10:26.116Z,100027.31
2018-07-12T15:12:54.662Z,100023.11
2018-07-12T15:15:23.222Z,100025.96
2018-07-12T15:17:51.692Z,100019.34
2018-07-12T15:20:20.302Z,100010.36
2018-07-12T15:22:48.766Z,100014.34
2018-07-12T15:25:17.291Z,100009.21
2018-07-12T15:27:46.191Z,100011.56
2018-07-12T15:30:14.735Z,100006.56
2018-07-12T15:32:43.309Z,100010.02
2018-07-12T15:35:12.308Z,100009.66
2018-07-12T15:37:40.902Z,100014.06
2018-07-12T15:40:09.555Z,100012.36
2018-07-12T15:42:38.092Z,100009.19
2018-07-12T15:45:06.743Z,100009.31
2018-07-12T15:47:35.419Z,100012.76
2018-07-12T15:50:04.002Z,100014.36
2018-07-12T15:52:32.609Z,100013.28
2018-07-12T15:55:01.263Z,100010.34
2018-07-12T15:57:29.847Z,100010.27
2018-07-12T15:59:58.445Z,100006.10
2018-07-12T16:02:27.039Z,100012.80
2018-07-12T16:04:57.154Z,100009.18
2018-07-12T16:07:26.238Z,100012.50
2018-07-12T16:09:55.990Z,100003.81
2018-07-12T16:12:24.615Z,100002.34
2018-07-12T16:14:53.447Z,100002.47
2018-07-12T16:17:22.401Z,99996.08
2018-07-12T16:19:51.089Z,99997.78
2018-07-12T16:22:19.805Z,100003.69
2018-07-12T16:24:48.448Z,100020.53
2018-07-12T16:27:17.071Z,100007.10
2018-07-12T16:29:47.112Z,100003.08
2018-07-12T16:32:17.300Z,100000.11
2018-07-12T16:34:49.445Z,99992.86
2018-07-12T16:37:18.447Z,99989.69
2018-07-12T16:39:48.816Z,99995.05
2018-07-12T16:42:17.877Z,99994.19
2018-07-12T16:44:46.621Z,99989.88
2018-07-12T16:47:15.460Z,99989.97
2018-07-12T16:49:44.285Z,99993.41
2018-07-12T16:52:12.944Z,99985.88
2018-07-12T16:54:41.659Z,99993.83
2018-07-12T16:57:13.673Z,99993.55
2018-07-12T16:59:42.510Z,99994.42
2018-07-12T17:02:11.186Z,99993.34
2018-07-12T17:04:39.935Z,100000.25
2018-07-12T17:07:08.657Z,99997.85
2018-07-12T17:09:37.283Z,100002.87
2018-07-12T17:12:05.976Z,100002.66
2018-07-12T17:14:34.588Z,99998.78
2018-07-12T17:17:03.915Z,100006.52
2018-07-12T17:19:32.542Z,100005.77
2018-07-12T17:22:01.470Z,100004.80
2018-07-12T17:24:30.089Z,100009.97
2018-07-12T17:27:00.100Z,100007.51
2018-07-12T17:29:28.724Z,100013.03
2018-07-12T17:31:59.165Z,100021.33
2018-07-12T17:34:28.348Z,100016.92
2018-07-12T17:36:57.327Z,100018.17
2018-07-12T17:39:26.201Z,100022.95
2018-07-12T17:41:54.954Z,100028.61
2018-07-12T17:44:23.645Z,100036.58
2018-07-12T17:46:52.302Z,99909.77
2018-07-12T17:49:20.981Z,100038.92
2018-07-12T17:51:49.653Z,100036.70
2018-07-12T17:54:19.181Z,100032.67
2018-07-12T17:56:48.369Z,100035.62
2018-07-12T17:59:17.378Z,100046.62
2018-07-12T18:01:48.323Z,100044.54
2018-07-12T18:04:18.318Z,100062.14
2018-07-12T18:06:47.145Z,100041.58
2018-07-12T18:09:15.964Z,100052.92
2018-07-12T18:11:44.781Z,100051.31
2018-07-12T18:14:13.601Z,100048.24
2018-07-12T18:16:43.133Z,100050.40
2018-07-12T18:19:12.187Z,100054.28
2018-07-12T18:21:41.057Z,100056.95
2018-07-12T18:24:09.976Z,100057.18
2018-07-12T18:26:38.734Z,100059.22
2018-07-12T18:29:07.524Z,100053.05
2018-07-12T18:31:36.318Z,100051.41
2018-07-12T18:34:05.147Z,100059.56
2018-07-12T18:36:34.606Z,100065.51
2018-07-12T18:39:04.686Z,100061.92
2018-07-12T18:41:36.989Z,100066.89
2018-07-12T18:44:06.144Z,100069.78
2018-07-12T18:46:35.065Z,100070.31
2018-07-12T18:49:04.643Z,100072.59
2018-07-12T18:51:33.718Z,100070.80
2018-07-12T18:54:02.621Z,100075.77
2018-07-12T18:56:31.576Z,100078.78
2018-07-12T18:59:00.468Z,100079.10
2018-07-12T19:01:29.345Z,100083.92
2018-07-12T19:03:58.227Z,100085.97
2018-07-12T19:06:27.148Z,100092.63
2018-07-12T19:08:55.982Z,100098.92
2018-07-12T19:11:24.686Z,100095.30
2018-07-12T19:13:53.485Z,100094.41
2018-07-12T19:16:22.492Z,100098.47
2018-07-12T19:18:51.223Z,100090.80
2018-07-12T19:21:19.969Z,100101.48
2018-07-12T19:23:49.654Z,100102.01
2018-07-12T19:26:18.786Z,100102.32
2018-07-12T19:28:47.521Z,100104.94
2018-07-12T19:31:16.349Z,100104.87
2018-07-12T19:33:45.181Z,100101.03
2018-07-12T19:36:14.082Z,100109.52
2018-07-12T19:38:42.869Z,100110.78
2018-07-12T19:41:11.600Z,100117.42
2018-07-12T19:43:40.293Z,100123.17
2018-07-12T19:46:09.052Z,100120.01
2018-07-12T19:48:37.876Z,100124.80
2018-07-12T19:51:07.040Z,100127.89
2018-07-12T19:53:35.819Z,100124.27
2018-07-12T19:56:04.664Z,100131.26
2018-07-12T19:58:33.367Z,100131.06
2018-07-12T20:01:02.177Z,100133.10
2018-07-12T20:03:30.873Z,100138.17
2018-07-12T20:05:59.521Z,100143.44
2018-07-12T20:08:28.317Z,100146.50
2018-07-12T20:10:56.910Z,100144.11
2018-07-12T20:13:25.590Z,100138.08
2018-07-12T20:15:54.143Z,100151.67
2018-07-12T20:18:23.731Z,100153.69
2018-07-12T20:20:52.302Z,100156.15
2018-07-12T20:23:20.862Z,100157.19
2018-07-12T20:25:49.437Z,100154.22
2018-07-12T20:28:17.960Z,100155.56
2018-07-12T20:30:46.438Z,100154.30
2018-07-12T20:33:15.067Z,100153.92
2018-07-12T20:35:43.708Z,100163.88
2018-07-12T20:38:12.345Z,100159.56
2018-07-12T20:40:40.952Z,100162.82
2018-07-12T20:43:10.428Z,100169.13
2018-07-12T20:45:39.034Z,100170.17
2018-07-12T20:48:07.695Z,100170.38
2018-07-12T20:50:36.366Z,100167.41
2018-07-12T20:53:04.970Z,100166.72
2018-07-12T20:55:33.484Z,100167.00
2018-07-12T20:58:01.943Z,100166.44
2018-07-12T21:00:30.515Z,100165.08
2018-07-12T21:02:59.048Z,100170.32
2018-07-12T21:05:27.634Z,100168.00
2018-07-12T21:07:56.218Z,100171.44
2018-07-12T21:10:24.886Z,100168.70
2018-07-12T21:12:53.479Z,100169.55
2018-07-12T21:15:22.079Z,100173.91
2018-07-12T21:17:54.302Z,100173.41
2018-07-12T21:20:22.883Z,100168.67
2018-07-12T21:22:51.702Z,100176.69
2018-07-12T21:25:20.478Z,100180.53
2018-07-12T21:27:49.138Z,100180.98
2018-07-12T21:30:17.793Z,100181.42
2018-07-12T21:32:46.391Z,100183.59
2018-07-12T21:35:14.995Z,100187.51
2018-07-12T21:37:43.678Z,100187.38
2018-07-12T21:40:12.969Z,100189.14
2018-07-12T21:42:41.917Z,100186.72
2018-07-12T21:45:10.623Z,100195.06
2018-07-12T21:47:39.271Z,100195.38
2018-07-12T21:50:08.021Z,100199.25
2018-07-12T21:52:36.640Z,100201.71
2018-07-12T21:55:05.432Z,100201.95
2018-07-12T21:57:34.324Z,100205.72
2018-07-12T22:00:03.021Z,100205.02
2018-07-12T22:02:32.535Z,100203.92
2018-07-12T22:05:01.285Z,100209.50
2018-07-12T22:07:43.146Z,100204.93
2018-07-12T22:10:11.855Z,100202.05
2018-07-12T22:12:40.620Z,100199.78
2018-07-12T22:15:09.746Z,100195.14
2018-07-12T22:17:38.462Z,100199.06
2018-07-12T22:20:07.163Z,100201.64
2018-07-12T22:22:36.619Z,100207.20
2018-07-12T22:25:05.268Z,100200.70
2018-07-12T22:27:33.986Z,100206.66
2018-07-12T22:30:02.708Z,100203.77
2018-07-12T22:32:31.441Z,100206.05
2018-07-12T22:35:00.146Z,100208.39
2018-07-12T22:37:28.924Z,100206.90
2018-07-12T22:39:57.571Z,100205.73
2018-07-12T22:42:26.273Z,100202.80
2018-07-12T22:44:54.787Z,100204.30
2018-07-12T22:47:23.442Z,100199.22
2018-07-12T22:49:51.988Z,100212.72
2018-07-12T22:52:21.634Z,100207.22
2018-07-12T22:54:50.853Z,100209.09
2018-07-12T22:57:19.646Z,100210.66
2018-07-12T22:59:48.876Z,100212.66
2018-07-12T23:02:17.605Z,100212.82
2018-07-12T23:04:46.263Z,100213.83
2018-07-12T23:07:14.933Z,100215.70
2018-07-12T23:09:43.736Z,100216.77
2018-07-12T23:12:12.537Z,100217.80
2018-07-12T23:14:41.110Z,100224.59
2018-07-12T23:17:09.728Z,100225.14
2018-07-12T23:19:38.382Z,100224.80
2018-07-12T23:22:06.967Z,100223.23
2018-07-12T23:24:35.583Z,100222.52
2018-07-12T23:27:04.150Z,100223.06
2018-07-12T23:29:32.746Z,100217.45
2018-07-12T23:32:01.289Z,100224.27
2018-07-12T23:34:29.997Z,100217.77
2018-07-12T23:36:58.572Z,100215.31
2018-07-12T23:39:27.345Z,100220.30
2018-07-12T23:41:56.026Z,100219.61
2018-07-12T23:44:24.553Z,100217.03
2018-07-12T23:46:53.179Z,100221.97
2018-07-12T23:49:21.936Z,100214.58
2018-07-12T23:51:50.449Z,100220.41
2018-07-12T23:54:19.102Z,100219.63
2018-07-12T23:56:47.599Z,100221.50
2018-07-12T23:59:16.334Z,100219.38
